Latest Weather Observations for Bellambi

IDN60801

Issued at 1:35 pm EST Friday 19 September 2014 (issued every 30 minutes, with the page automatically refreshed every 10 minutes)

About weather observations | Map of weather stations | Latest weather observations for NSW | Other Formats
Station Details ID: 068228 Name: BELLAMBI AWS Lat: -34.37 Lon: 150.93 Height: 10.0 m
Data from the previous 72 hours. | See also: Recent months at Bellambi
Date/Time
EST
Temp
°C
App
Temp
°C
Dew
Point
Rel
Hum
%
Delta-T
°C
Wind Press
QNH
hPa
Press
MSL
hPa
Rain
since 9 am
mm
Dir
 
Spd
km/h
Gust
km/h
Spd
kts
Gust
kts
19/01:30pm 15.9 12.5 6.1 52 4.7 ESE 13 15 7 8 - - 0.0
19/01:00pm 16.5 13.4 7.2 54 4.6 SE 13 17 7 9 - - 0.0
19/12:30pm 16.1 12.5 4.8 47 5.3 ESE 13 15 7 8 - - 0.0
19/12:00pm 16.3 12.9 5.9 50 5.0 ESE 13 17 7 9 - - 0.0
19/11:30am 16.1 12.1 5.1 48 5.2 ESE 15 19 8 10 - - 0.0
19/11:00am 15.8 10.9 5.1 49 5.1 SE 20 24 11 13 - - 0.0
19/10:30am 15.9 11.1 4.9 48 5.2 SE 19 20 10 11 - - 0.0
19/10:00am 16.4 12.4 4.8 46 5.5 SE 15 19 8 10 - - 0.0
19/09:30am 16.6 13.1 1.1 35 6.8 W 9 17 5 9 - - 0.0
19/09:00am 15.7 12.8 2.5 41 5.9 WSW 7 11 4 6 - - 0.0
19/08:30am 14.8 10.8 3.0 45 5.3 WSW 13 19 7 10 - - 0.0
19/08:00am 14.4 11.2 5.2 54 4.3 NW 11 15 6 8 - - 0.0
19/07:30am 13.1 10.3 5.3 59 3.6 WNW 9 11 5 6 - - 0.0
19/07:00am 11.3 8.3 4.3 62 3.1 WNW 9 11 5 6 - - 0.0
19/06:30am 9.4 5.9 3.4 66 2.6 WNW 11 13 6 7 - - 0.0
19/06:00am 8.9 4.9 3.1 67 2.5 WNW 13 15 7 8 - - 0.0
19/05:30am 8.6 5.0 2.8 67 2.5 WNW 11 15 6 8 - - 0.0
19/05:00am 8.7 5.1 3.1 68 2.4 WNW 11 13 6 7 - - 0.0
19/04:30am 8.9 6.1 3.3 68 2.4 WNW 7 11 4 6 - - 0.0
19/04:00am 8.8 6.1 2.6 65 2.6 WNW 6 7 3 4 - - 0.0
19/03:30am 9.4 8.0 3.4 66 2.6 CALM 0 4 0 2 - - 0.0
19/03:00am 9.4 6.6 3.4 66 2.6 NW 7 9 4 5 - - 0.0
19/02:30am 9.9 7.7 3.6 65 2.7 NNW 4 9 2 5 - - 0.0
19/02:00am 10.5 8.3 3.1 60 3.2 WNW 4 9 2 5 - - 0.0
19/01:30am 10.6 7.6 2.2 56 3.6 W 7 11 4 6 - - 0.0
19/01:00am 10.5 6.8 2.1 56 3.6 WNW 11 13 6 7 - - 0.0
19/12:30am 11.2 7.1 2.2 54 3.8 W 13 17 7 9 - - 0.0
19/12:00am 10.5 6.8 2.1 56 3.6 W 11 17 6 9 - - 0.0
 
Date/Time
EST
Temp
°C
App
Temp
°C
Dew
Point
Rel
Hum
%
Delta-T
°C
Wind Press
QNH
hPa
Press
MSL
hPa
Rain
since 9 am
mm
Dir
 
Spd
km/h
Gust
km/h
Spd
kts
Gust
kts
18/11:30pm 10.9 6.8 2.0 54 3.8 WNW 13 17 7 9 - - 0.0
18/11:00pm 11.1 6.9 1.9 53 3.9 WNW 13 17 7 9 - - 0.0
18/10:30pm 11.2 7.1 2.0 53 3.9 WNW 13 15 7 8 - - 0.0
18/10:00pm 11.5 7.5 2.8 55 3.8 WNW 13 17 7 9 - - 0.0
18/09:30pm 11.9 7.9 2.6 53 4.0 WNW 13 17 7 9 - - 0.0
18/09:00pm 11.9 8.2 2.1 51 4.2 WNW 11 13 6 7 - - 0.0
18/08:30pm 12.3 9.0 2.2 50 4.4 WNW 9 11 5 6 - - 0.0
18/08:00pm 12.4 8.4 3.1 53 4.1 W 13 15 7 8 - - 0.0
18/07:30pm 12.2 8.6 3.2 54 4.0 W 11 13 6 7 - - 0.0
18/07:00pm 12.2 9.0 3.2 54 4.0 W 9 13 5 7 - - 0.0
18/06:30pm 13.1 9.9 3.2 51 4.4 W 9 11 5 6 - - 0.0
18/06:00pm 14.4 10.7 2.6 45 5.2 S 11 15 6 8 - - 0.0
18/05:30pm 14.8 11.5 2.7 44 5.4 S 9 15 5 8 - - 0.0
18/05:00pm 15.3 11.4 1.4 39 6.1 S 11 13 6 7 - - 0.0
18/04:30pm 15.4 11.6 3.9 46 5.3 ESE 13 17 7 9 - - 0.0
18/04:00pm 15.4 10.3 3.2 44 5.5 SE 19 22 10 12 - - 0.0
18/03:30pm 15.5 10.4 4.2 47 5.2 SE 20 24 11 13 - - 0.0
18/03:00pm 15.7 10.1 3.2 43 5.7 SE 22 24 12 13 - - 0.0
18/02:30pm 15.9 10.0 1.6 38 6.3 SSE 22 28 12 15 - - 0.0
18/02:00pm 15.9 9.1 3.0 42 5.9 SSE 28 32 15 17 - - 0.0
18/01:30pm 15.9 9.3 4.3 46 5.4 SSE 28 33 15 18 - - 0.0
18/01:00pm 16.1 9.4 3.9 44 5.6 SSE 28 35 15 19 - - 0.0
18/12:30pm 16.1 9.8 3.9 44 5.6 SSE 26 33 14 18 - - 0.0
18/12:00pm 16.6 11.0 3.6 42 6.0 SSE 22 32 12 17 - - 0.0
18/11:30am 16.6 10.4 -0.1 32 7.1 S 22 32 12 17 - - 0.0
18/11:00am 16.1 10.3 -0.2 33 6.9 S 20 24 11 13 - - 0.0
18/10:30am 16.0 10.6 1.3 37 6.4 S 19 24 10 13 - - 0.0
18/10:00am 15.8 9.8 -1.3 31 7.1 SW 20 32 11 17 - - 0.0
18/09:30am 15.6 10.9 0.6 36 6.4 SSW 15 20 8 11 - - 0.0
18/09:00am 15.2 9.5 0.6 37 6.3 SSW 20 22 11 12 - - 0.0
18/08:30am 14.5 9.3 0.0 37 6.1 WSW 17 24 9 13 - - 0.0
18/08:00am 13.6 8.0 -0.1 39 5.7 WSW 19 28 10 15 - - 0.0
18/07:30am 12.9 7.6 -0.4 40 5.5 W 17 28 9 15 - - 0.0
18/07:00am 12.2 6.9 -0.3 42 5.1 W 17 26 9 14 - - 0.0
18/06:30am 11.7 6.5 -0.1 44 4.8 W 17 26 9 14 - - 0.0
18/06:00am 11.1 6.3 0.5 48 4.4 W 15 28 8 15 - - 0.0
18/05:30am 11.6 6.4 0.4 46 4.6 W 17 22 9 12 - - 0.0
18/05:00am 11.8 6.7 0.6 46 4.6 W 17 28 9 15 - - 0.0
18/04:30am 12.4 5.9 0.2 43 5.0 WSW 24 35 13 19 - - 0.0
18/04:00am 12.7 5.4 0.1 42 5.2 WSW 28 39 15 21 - - 0.0
18/03:30am 12.7 7.0 0.8 44 5.0 WSW 20 32 11 17 - - 0.0
18/03:00am 13.0 7.0 1.0 44 5.1 WSW 22 33 12 18 - - 0.0
18/02:30am 13.1 7.5 1.5 45 5.0 WSW 20 35 11 19 - - 0.0
18/02:00am 13.5 7.2 1.5 44 5.2 WSW 24 39 13 21 - - 0.0
18/01:30am 14.0 7.7 1.6 43 5.4 WSW 24 41 13 22 - - 0.0
18/01:23am 14.1 7.0 1.1 41 5.6 WSW 28 46 15 25 - - 0.0
18/01:00am 14.3 7.9 1.2 41 5.6 WSW 24 41 13 22 - - 0.0
18/12:30am 14.4 7.1 0.3 38 6.0 SW 28 44 15 24 - - 0.0
18/12:06am 14.5 7.1 -0.4 36 6.2 SW 28 48 15 26 - - 0.0
18/12:00am 14.4 7.5 -0.1 37 6.1 WSW 26 44 14 24 - - 0.0
 
Date/Time
EST
Temp
°C
App
Temp
°C
Dew
Point
Rel
Hum
%
Delta-T
°C
Wind Press
QNH
hPa
Press
MSL
hPa
Rain
since 9 am
mm
Dir
 
Spd
km/h
Gust
km/h
Spd
kts
Gust
kts
17/11:51pm 14.5 7.3 0.7 39 5.9 WSW 28 46 15 25 - - 0.0
17/11:30pm 14.5 8.1 0.7 39 5.9 WSW 24 44 13 24 - - 0.0
17/11:00pm 14.6 7.4 0.5 38 6.0 WSW 28 43 15 23 - - 0.0
17/10:30pm 14.6 8.2 0.8 39 5.9 WSW 24 39 13 21 - - 0.0
17/10:00pm 14.7 8.7 1.3 40 5.8 SW 22 32 12 17 - - 0.0
17/09:30pm 14.7 10.3 2.6 44 5.4 WSW 15 24 8 13 - - 0.0
17/09:00pm 14.5 11.3 3.3 47 5.1 WSW 9 15 5 8 - - 0.0
17/08:30pm 14.9 11.7 3.1 45 5.3 WSW 9 19 5 10 - - 0.0
17/08:00pm 14.9 10.9 3.1 45 5.3 WSW 13 22 7 12 - - 0.0
17/07:30pm 15.7 11.3 2.8 42 5.8 W 15 22 8 12 - - 0.0
17/07:00pm 16.1 12.8 2.2 39 6.2 WSW 9 17 5 9 - - 0.0
17/06:30pm 16.7 12.1 1.6 36 6.7 WSW 15 30 8 16 - - 0.0
17/06:00pm 17.5 11.5 1.1 33 7.2 W 22 39 12 21 - - 0.0
17/05:30pm 17.8 13.5 1.3 33 7.3 WSW 13 35 7 19 - - 0.0
17/05:00pm 18.5 14.0 1.9 33 7.5 WSW 15 26 8 14 - - 0.0
17/04:30pm 18.7 12.0 1.2 31 7.8 WSW 26 43 14 23 - - 0.0
17/04:27pm 18.8 11.7 1.3 31 7.9 WSW 28 46 15 25 - - 0.0
17/04:00pm 19.8 14.1 0.8 28 8.5 W 20 37 11 20 - - 0.0
17/03:30pm 19.6 12.4 0.6 28 8.5 W 28 54 15 29 - - 0.0
17/03:02pm 19.7 12.4 0.2 27 8.6 W 28 54 15 29 - - 0.0
17/03:00pm 19.8 13.1 1.3 29 8.4 W 26 54 14 29 - - 0.0
17/02:46pm 19.8 12.6 0.8 28 8.5 W 28 50 15 27 - - 0.0
17/02:30pm 19.9 13.6 1.8 30 8.3 W 24 41 13 22 - - 0.0
17/02:00pm 19.6 12.9 1.6 30 8.2 W 26 43 14 23 - - 0.0
17/01:37pm 19.0 11.8 0.6 29 8.2 W 28 48 15 26 - - 0.0
17/01:30pm 19.4 13.5 1.4 30 8.1 W 22 37 12 20 - - 0.0
17/01:00pm 19.8 13.7 2.6 32 8.0 WSW 24 35 13 19 - - 0.0
17/12:30pm 20.0 14.5 1.9 30 8.3 W 20 39 11 21 - - 0.0
17/12:00pm 19.7 15.2 2.1 31 8.1 W 15 24 8 13 - - 0.0
17/11:30am 19.1 13.6 2.0 32 7.8 W 20 39 11 21 - - 0.0
17/11:00am 18.8 11.7 1.3 31 7.9 W 28 44 15 24 - - 0.0
17/10:39am 18.7 11.7 2.1 33 7.6 WSW 28 46 15 25 - - 0.0
17/10:30am 18.6 11.6 2.0 33 7.5 WSW 28 41 15 22 - - 0.0
17/10:00am 18.4 11.8 1.9 33 7.5 W 26 39 14 21 - - 0.0
17/09:30am 18.0 11.4 1.9 34 7.3 W 26 43 14 23 - - 0.0
17/09:20am 17.8 10.7 1.3 33 7.3 W 28 50 15 27 - - 0.0
17/09:00am 17.4 10.8 2.2 36 6.9 W 26 39 14 21 - - 0.6
17/08:30am 17.0 10.6 3.3 40 6.3 W 26 44 14 24 - - 0.6
17/08:09am 16.6 9.7 4.6 45 5.7 W 30 48 16 26 - - 0.6
17/08:00am 16.5 9.1 5.2 47 5.4 W 33 48 18 26 - - 0.6
17/07:50am 16.3 9.6 5.6 49 5.1 W 30 48 16 26 - - 0.6
17/07:30am 16.0 9.7 5.6 50 5.0 WNW 28 43 15 23 - - 0.6
17/07:03am 15.7 9.3 5.0 49 5.1 W 28 52 15 28 - - 0.6
17/07:00am 15.7 9.3 5.3 50 4.9 W 28 39 15 21 - - 0.6
17/06:30am 15.2 8.8 5.4 52 4.7 WNW 28 44 15 24 - - 0.6
17/06:00am 15.2 8.9 5.7 53 4.5 WNW 28 52 15 28 - - 0.6
17/05:55am 15.2 8.9 5.7 53 4.5 WNW 28 52 15 28 - - 0.6
17/05:30am 15.2 10.5 6.2 55 4.3 W 20 37 11 20 - - 0.6
17/05:00am 15.3 12.5 7.1 58 4.0 WSW 11 19 6 10 - - 0.6
17/04:30am 15.2 12.5 7.5 60 3.8 SSW 11 19 6 10 - - 0.6
17/04:00am 15.3 11.9 7.8 61 3.7 SSW 15 22 8 12 - - 0.6
17/03:30am 15.2 12.3 8.0 62 3.6 SSW 13 22 7 12 - - 0.6
17/03:00am 15.5 12.5 7.5 59 4.0 SW 13 26 7 14 - - 0.6
17/02:30am 16.0 11.2 7.5 57 4.2 W 22 37 12 20 - - 0.6
17/02:00am 16.0 9.7 7.2 56 4.4 W 30 48 16 26 - - 0.6
17/01:39am 16.1 9.4 7.3 56 4.4 W 32 54 17 29 - - 0.6
17/01:30am 16.0 9.3 7.5 57 4.2 W 32 46 17 25 - - 0.6
17/01:00am 15.9 10.0 7.7 58 4.1 W 28 46 15 25 - - 0.6
17/12:30am 16.2 9.9 7.4 56 4.4 W 30 52 16 28 - - 0.6
17/12:00am 16.4 10.0 7.1 54 4.6 W 30 48 16 26 - - 0.6
 
Date/Time
EST
Temp
°C
App
Temp
°C
Dew
Point
Rel
Hum
%
Delta-T
°C
Wind Press
QNH
hPa
Press
MSL
hPa
Rain
since 9 am
mm
Dir
 
Spd
km/h
Gust
km/h
Spd
kts
Gust
kts
16/11:30pm 16.4 10.0 7.1 54 4.6 W 30 52 16 28 - - 0.6
16/11:00pm 16.6 10.2 7.0 53 4.8 W 30 52 16 28 - - 0.6
16/10:32pm 16.4 10.5 7.3 55 4.5 W 28 52 15 28 - - 0.6
16/10:30pm 16.3 10.7 7.3 55 4.5 W 26 44 14 24 - - 0.6
16/10:00pm 16.4 8.0 7.3 55 4.5 WNW 41 59 22 32 - - 0.6
16/09:30pm 16.4 7.6 7.1 54 4.6 WNW 43 61 23 33 - - 0.6
16/09:00pm 16.4 7.5 6.8 53 4.7 WNW 43 69 23 37 - - 0.6
16/08:34pm 16.8 8.2 6.6 51 5.0 WNW 41 61 22 33 - - 0.6
16/08:30pm 16.8 7.8 6.6 51 5.0 WNW 43 57 23 31 - - 0.6
16/08:00pm 17.2 9.3 6.4 49 5.3 WNW 37 59 20 32 - - 0.6
16/07:56pm 17.1 10.6 6.3 49 5.3 WNW 30 54 16 29 - - 0.6
16/07:30pm 17.4 12.9 6.9 50 5.2 WNW 20 28 11 15 - - 0.6
16/07:00pm 17.7 14.4 6.3 47 5.6 W 13 30 7 16 - - 0.6
16/06:30pm 18.2 14.1 6.1 45 6.0 WNW 17 26 9 14 - - 0.6
16/06:00pm 19.1 13.5 5.2 40 6.8 W 24 39 13 21 - - 0.6
16/05:30pm 19.7 14.1 5.4 39 7.0 W 24 39 13 21 - - 0.6
16/05:00pm 20.4 14.8 5.2 37 7.5 W 24 39 13 21 - - 0.6
16/04:30pm 21.0 16.3 6.2 38 7.4 W 20 35 11 19 - - 0.6
16/04:00pm 21.0 16.1 8.6 45 6.5 WNW 24 37 13 20 - - 0.6
16/03:30pm 20.2 20.0 14.6 70 3.3 ENE 9 17 5 9 - - 0.6
16/03:00pm 18.8 14.8 15.3 80 2.1 NNE 30 33 16 18 - - 0.6
16/02:30pm 19.5 16.4 15.6 78 2.3 NE 26 30 14 16 - - 0.6
16/02:00pm 19.6 16.5 15.5 77 2.4 NE 26 32 14 17 - - 0.6

Other Formats:

Comma delimited format used in spreadsheet applications
http://www.bom.gov.au/fwo/IDN60801/IDN60801.94749.axf

JavaScript Object Notation format (JSON) in row-major order
http://www.bom.gov.au/fwo/IDN60801/IDN60801.94749.json